Etusivu
METAR-TAF:

METAR-TAF

Lentoasemat :

Indianapolis, Indiana, Yhdysvallat

Leveyspiiri: 40-01-50N, Pituuspiiri: 086-15-05W, korkeus merenpinnasta: 281 m

Tämänhetkinen sää

Tämä raportti tehtiin 17 minuuttia sitten, kello 16.55 UTC
Tuuli 11 kn lounaasta
Lämpötila 4°C
Kosteus 44%
Ilmanpaine 1027 hPa
Näkyvyys: 16.1 km
selkeää

METAR: KTYQ 221655Z AUTO 22011KT 10SM CLR 04/M07 A3034 RMK AO2 T00351070

Aika: 10:12 (17:12 UTC)


TAF: puuttuu

Säähavainnot ja -ennusteet yli 4000 lentoasemalta (METAR- ja TAF-raportit).

Käytössä olevat sääasemat on merkitty karttaan keltaisilla ja punaisilla pisteillä.

Aseta hiiri pisteen päälle nähdäksesi sääaseman nimen.

Klikkaa sitten nähdäksesi säähavainnot ja -ennusteet.

Kartan vaihtaminen: klikkaa mustalla rastilla varustettuja vihreitä pisteitä, niin voit zoomata sisään; viivalla varustettua vihreää pistettä, niin voit zoomata ulos tai vihreitä nuolia, niin pääset viereisille kartoille.


METAR-TAF: